createdAt,value
2018-08-25T00:01:07.608Z,0.87
2018-08-25T00:03:36.486Z,0.85
2018-08-25T00:06:05.741Z,0.77
2018-08-25T00:08:34.641Z,0.73
2018-08-25T00:11:04.273Z,0.80
2018-08-25T00:13:33.257Z,0.97
2018-08-25T00:16:02.243Z,0.73
2018-08-25T00:18:31.229Z,0.60
2018-08-25T00:21:00.254Z,0.70
2018-08-25T00:23:29.150Z,0.77
2018-08-25T00:25:58.141Z,0.60
2018-08-25T00:28:27.092Z,0.60
2018-08-25T00:31:01.352Z,0.90
2018-08-25T00:33:30.232Z,0.97
2018-08-25T00:35:59.205Z,0.90
2018-08-25T00:38:28.156Z,0.77
2018-08-25T00:40:57.048Z,0.97
2018-08-25T00:43:25.917Z,1.07
2018-08-25T00:45:54.880Z,0.67
2018-08-25T00:48:23.853Z,0.67
2018-08-25T00:50:52.753Z,0.90
2018-08-25T00:53:21.725Z,1.00
2018-08-25T00:55:50.606Z,0.80
2018-08-25T00:58:19.693Z,0.70
2018-08-25T01:00:48.641Z,0.80
2018-08-25T01:03:17.535Z,0.90
2018-08-25T01:05:46.434Z,0.87
2018-08-25T01:08:15.380Z,0.53
2018-08-25T01:10:44.266Z,0.67
2018-08-25T01:13:13.177Z,0.90
2018-08-25T01:15:42.259Z,0.80
2018-08-25T01:18:11.097Z,0.87
2018-08-25T01:20:40.059Z,0.83
2018-08-25T01:23:09.022Z,0.70
2018-08-25T01:25:37.888Z,0.80
2018-08-25T01:28:06.806Z,1.00
2018-08-25T01:30:35.806Z,1.03
2018-08-25T01:33:04.920Z,1.53
2018-08-25T01:35:33.845Z,0.93
2018-08-25T01:38:02.815Z,0.93
2018-08-25T01:40:31.684Z,0.90
2018-08-25T01:43:00.589Z,1.20
2018-08-25T01:45:29.570Z,1.23
2018-08-25T01:47:58.462Z,1.07
2018-08-25T01:50:27.361Z,0.83
2018-08-25T01:52:56.375Z,0.50
2018-08-25T01:55:25.257Z,1.10
2018-08-25T01:57:54.124Z,1.13
2018-08-25T02:00:23.113Z,0.87
2018-08-25T02:02:52.112Z,0.97
2018-08-25T02:05:20.972Z,0.70
2018-08-25T02:07:49.940Z,1.03
2018-08-25T02:10:18.816Z,1.13
2018-08-25T02:12:47.700Z,1.00
2018-08-25T02:15:16.705Z,0.70
2018-08-25T02:17:45.604Z,0.80
2018-08-25T02:20:14.479Z,0.77
2018-08-25T02:22:43.416Z,1.60
2018-08-25T02:25:12.325Z,0.93
2018-08-25T02:27:41.216Z,0.70
2018-08-25T02:30:10.161Z,0.93
2018-08-25T02:32:39.029Z,0.90
2018-08-25T02:35:07.952Z,1.30
2018-08-25T02:37:37.098Z,0.80
2018-08-25T02:40:06.065Z,0.70
2018-08-25T02:42:35.455Z,0.80
2018-08-25T02:45:04.868Z,0.70
2018-08-25T02:47:34.473Z,0.63
2018-08-25T02:50:03.377Z,0.87
2018-08-25T02:52:32.564Z,0.90
2018-08-25T02:55:01.454Z,0.87
2018-08-25T02:57:30.363Z,1.00
2018-08-25T02:59:59.347Z,1.10
2018-08-25T03:02:28.243Z,0.60
2018-08-25T03:04:57.158Z,1.03
2018-08-25T03:07:26.309Z,0.73
2018-08-25T03:09:55.256Z,0.77
2018-08-25T03:12:24.131Z,1.07
2018-08-25T03:14:53.040Z,1.00
2018-08-25T03:17:22.039Z,1.10
2018-08-25T03:19:50.931Z,0.70
2018-08-25T03:22:19.891Z,0.83
2018-08-25T03:24:48.772Z,0.80
2018-08-25T03:27:17.671Z,0.80
2018-08-25T03:29:46.585Z,0.90
2018-08-25T03:32:15.430Z,1.07
2018-08-25T03:34:44.357Z,0.97
2018-08-25T03:37:13.333Z,1.00
2018-08-25T03:39:42.228Z,0.80
2018-08-25T03:42:11.114Z,0.93
2018-08-25T03:44:40.845Z,0.73
2018-08-25T03:47:09.743Z,1.20
2018-08-25T03:49:38.669Z,0.80
2018-08-25T03:52:07.575Z,0.70
2018-08-25T03:54:36.455Z,0.97
2018-08-25T03:57:05.436Z,1.00
2018-08-25T03:59:34.346Z,0.90
2018-08-25T04:02:03.220Z,0.90
2018-08-25T04:04:32.192Z,1.33
2018-08-25T04:07:01.099Z,1.03
2018-08-25T04:09:29.977Z,0.87
2018-08-25T04:11:58.929Z,0.90
2018-08-25T04:14:27.816Z,1.07
2018-08-25T04:16:56.756Z,0.83
2018-08-25T04:19:25.809Z,0.90
2018-08-25T04:21:54.978Z,0.70
2018-08-25T04:24:23.871Z,0.83
2018-08-25T04:26:52.835Z,0.80
2018-08-25T04:29:21.747Z,1.27
2018-08-25T04:31:50.608Z,1.10
2018-08-25T04:34:19.592Z,0.73
2018-08-25T04:36:48.458Z,1.20
2018-08-25T04:39:17.331Z,0.57
2018-08-25T04:41:46.299Z,1.10
2018-08-25T04:44:15.156Z,1.20
2018-08-25T04:46:44.084Z,1.50
2018-08-25T04:49:13.040Z,1.13
2018-08-25T04:51:41.926Z,1.10
2018-08-25T04:54:10.802Z,0.70
2018-08-25T04:56:39.756Z,1.13
2018-08-25T04:59:08.614Z,0.77
2018-08-25T05:01:37.512Z,0.90
2018-08-25T05:04:06.676Z,1.37
2018-08-25T05:06:35.669Z,0.90
2018-08-25T05:09:06.764Z,0.80
2018-08-25T05:11:35.715Z,1.27
2018-08-25T05:14:04.576Z,0.90
2018-08-25T05:16:33.475Z,0.60
2018-08-25T05:19:02.481Z,1.20
2018-08-25T05:21:31.498Z,1.23
2018-08-25T05:24:00.366Z,0.93
2018-08-25T05:26:29.325Z,0.83
2018-08-25T05:28:58.215Z,1.00
2018-08-25T05:31:27.141Z,0.87
2018-08-25T05:33:56.126Z,1.00
2018-08-25T05:36:25.034Z,1.00
2018-08-25T05:38:53.925Z,1.23
2018-08-25T05:41:22.915Z,0.70
2018-08-25T05:43:52.441Z,1.00
2018-08-25T05:46:21.364Z,1.63
2018-08-25T05:48:50.338Z,1.97
2018-08-25T05:51:19.217Z,2.20
2018-08-25T05:53:48.132Z,1.80
2018-08-25T05:56:17.100Z,1.80
2018-08-25T05:58:46.022Z,1.23
2018-08-25T06:01:14.891Z,1.37
2018-08-25T06:03:43.860Z,1.17
2018-08-25T06:06:12.741Z,0.97
2018-08-25T06:08:41.622Z,1.20
2018-08-25T06:11:10.581Z,0.90
2018-08-25T06:13:39.529Z,0.80
2018-08-25T06:16:08.366Z,0.90
2018-08-25T06:18:37.328Z,1.20
2018-08-25T06:21:06.266Z,0.63
2018-08-25T06:23:35.337Z,0.93
2018-08-25T06:26:04.315Z,0.93
2018-08-25T06:28:33.178Z,1.00
2018-08-25T06:31:02.082Z,1.30
2018-08-25T06:33:31.022Z,1.20
2018-08-25T06:35:59.974Z,1.43
2018-08-25T06:38:28.898Z,0.90
2018-08-25T06:40:57.877Z,1.13
2018-08-25T06:43:26.800Z,1.77
2018-08-25T06:46:00.994Z,1.43
2018-08-25T06:48:29.924Z,1.23
2018-08-25T06:50:58.800Z,0.97
2018-08-25T06:53:27.787Z,1.07
2018-08-25T06:55:56.701Z,1.00
2018-08-25T06:58:25.568Z,1.00
2018-08-25T07:00:54.714Z,0.90
2018-08-25T07:03:23.633Z,1.37
2018-08-25T07:05:52.626Z,1.60
2018-08-25T07:08:21.591Z,0.80
2018-08-25T07:10:50.665Z,1.10
2018-08-25T07:13:19.560Z,0.70
2018-08-25T07:15:48.536Z,1.43
2018-08-25T07:18:17.409Z,0.90
2018-08-25T07:20:47.270Z,1.00
2018-08-25T07:23:16.207Z,0.93
2018-08-25T07:25:45.207Z,1.00
2018-08-25T07:28:14.122Z,0.70
2018-08-25T07:30:43.048Z,0.93
2018-08-25T07:33:11.895Z,1.13
2018-08-25T07:35:40.859Z,1.20
2018-08-25T07:38:09.856Z,0.73
2018-08-25T07:40:38.671Z,0.70
2018-08-25T07:43:07.613Z,0.90
2018-08-25T07:45:36.515Z,0.90
2018-08-25T07:48:05.455Z,1.00
2018-08-25T07:50:34.531Z,1.03
2018-08-25T07:53:04.366Z,0.60
2018-08-25T07:55:33.272Z,1.00
2018-08-25T07:58:02.242Z,1.40
2018-08-25T08:00:31.145Z,0.90
2018-08-25T08:03:00.041Z,1.00
2018-08-25T08:05:29.072Z,1.00
2018-08-25T08:07:57.892Z,0.50
2018-08-25T08:10:26.785Z,1.23
2018-08-25T08:12:55.763Z,1.20
2018-08-25T08:15:24.659Z,1.10
2018-08-25T08:17:53.540Z,1.03
2018-08-25T08:20:22.499Z,1.03
2018-08-25T08:22:51.376Z,0.70
2018-08-25T08:25:20.259Z,0.70
2018-08-25T08:27:49.285Z,0.93
2018-08-25T08:30:18.165Z,0.90
2018-08-25T08:32:47.064Z,1.00
2018-08-25T08:35:16.008Z,1.20
2018-08-25T08:37:44.887Z,1.00
2018-08-25T08:40:13.760Z,0.90
2018-08-25T08:42:42.728Z,1.17
2018-08-25T08:45:11.600Z,1.03
2018-08-25T08:47:40.531Z,1.00
2018-08-25T08:50:10.521Z,1.20
2018-08-25T08:52:39.881Z,1.20
2018-08-25T08:55:09.005Z,1.33
2018-08-25T08:57:38.550Z,1.30
2018-08-25T09:00:07.766Z,1.20
2018-08-25T09:02:36.740Z,1.03
2018-08-25T09:05:06.037Z,1.43
2018-08-25T09:07:34.958Z,1.00
2018-08-25T09:10:03.902Z,0.90
2018-08-25T09:12:32.919Z,2.00
2018-08-25T09:15:01.839Z,1.23
2018-08-25T09:17:30.714Z,1.70
2018-08-25T09:19:59.675Z,1.60
2018-08-25T09:22:28.558Z,1.27
2018-08-25T09:24:57.433Z,1.27
2018-08-25T09:27:26.470Z,1.30
2018-08-25T09:29:55.354Z,1.00
2018-08-25T09:32:24.237Z,0.90
2018-08-25T09:34:53.153Z,1.30
2018-08-25T09:37:22.060Z,1.20
2018-08-25T09:39:50.935Z,1.20
2018-08-25T09:42:19.834Z,1.40
2018-08-25T09:44:48.760Z,1.87
2018-08-25T09:47:17.665Z,1.37
2018-08-25T09:49:46.625Z,1.30
2018-08-25T09:52:15.500Z,1.53
2018-08-25T09:54:44.380Z,1.80
2018-08-25T09:57:13.324Z,1.43
2018-08-25T09:59:46.895Z,1.40
2018-08-25T10:02:15.859Z,1.80
2018-08-25T10:04:44.748Z,1.40
2018-08-25T10:07:13.634Z,1.50
2018-08-25T10:09:42.597Z,1.13
2018-08-25T10:12:11.471Z,1.60
2018-08-25T10:14:40.365Z,1.40
2018-08-25T10:17:09.331Z,1.77
2018-08-25T10:19:38.243Z,1.70
2018-08-25T10:22:07.143Z,1.67
2018-08-25T10:24:36.102Z,1.50
2018-08-25T10:27:05.021Z,1.43
2018-08-25T10:29:33.903Z,1.70
2018-08-25T10:32:03.057Z,1.40
2018-08-25T10:34:31.941Z,1.80
2018-08-25T10:37:00.843Z,1.47
2018-08-25T10:39:29.786Z,1.80
2018-08-25T10:41:58.681Z,1.70
2018-08-25T10:44:27.542Z,1.50
2018-08-25T10:46:56.435Z,1.03
2018-08-25T10:49:25.340Z,1.40
2018-08-25T10:51:54.222Z,1.20
2018-08-25T10:54:23.687Z,1.33
2018-08-25T10:56:52.563Z,1.67
2018-08-25T10:59:21.462Z,1.23
2018-08-25T11:01:50.416Z,1.63
2018-08-25T11:04:19.310Z,1.50
2018-08-25T11:06:48.177Z,0.90
2018-08-25T11:09:17.087Z,0.60
2018-08-25T11:14:42.711Z,0.70
2018-08-25T11:17:11.600Z,0.80
2018-08-25T11:19:40.496Z,0.70
2018-08-25T11:22:09.483Z,0.70
2018-08-25T11:24:38.468Z,0.70
2018-08-25T11:27:07.422Z,0.70
2018-08-25T11:29:36.378Z,0.80
2018-08-25T11:32:05.358Z,0.67
2018-08-25T11:34:34.273Z,0.73
2018-08-25T11:37:03.185Z,0.60
2018-08-25T11:39:32.187Z,0.50
2018-08-25T11:42:01.085Z,0.60
2018-08-25T11:44:30.068Z,0.40
2018-08-25T11:46:59.053Z,0.60
2018-08-25T11:49:28.962Z,0.40
2018-08-25T11:51:57.952Z,0.40
2018-08-25T11:54:26.861Z,0.30
2018-08-25T11:56:55.788Z,0.20
2018-08-25T11:59:24.775Z,0.30
2018-08-25T12:01:54.205Z,0.27
2018-08-25T12:04:23.104Z,0.40
2018-08-25T12:06:52.073Z,0.53
2018-08-25T12:09:20.985Z,0.40
2018-08-25T12:11:49.881Z,0.50
2018-08-25T12:14:18.846Z,0.80
2018-08-25T12:16:47.774Z,0.70
2018-08-25T12:19:16.776Z,0.63
2018-08-25T12:21:45.727Z,0.60
2018-08-25T12:24:14.673Z,0.83
2018-08-25T12:26:43.588Z,0.83
2018-08-25T12:29:12.517Z,0.63
2018-08-25T12:31:41.426Z,0.93
2018-08-25T12:34:10.384Z,0.80
2018-08-25T12:36:39.381Z,0.70
2018-08-25T12:39:09.746Z,0.70
2018-08-25T12:41:38.652Z,0.60
2018-08-25T12:44:07.730Z,0.73
2018-08-25T12:46:37.022Z,0.83
2018-08-25T12:49:05.936Z,0.67
2018-08-25T12:51:34.917Z,0.40
2018-08-25T12:54:03.824Z,0.43
2018-08-25T12:56:32.820Z,0.70
2018-08-25T12:59:01.803Z,0.50
2018-08-25T13:01:30.695Z,0.63
2018-08-25T13:03:59.576Z,0.33
2018-08-25T13:06:28.536Z,0.30
2018-08-25T13:08:57.468Z,0.40
2018-08-25T13:11:26.348Z,0.40
2018-08-25T13:13:55.253Z,0.43
2018-08-25T13:16:24.236Z,0.50
2018-08-25T13:18:53.119Z,0.30
2018-08-25T13:21:22.437Z,0.43
2018-08-25T13:23:51.310Z,0.67
2018-08-25T13:26:20.205Z,0.60
2018-08-25T13:28:49.166Z,0.57
2018-08-25T13:31:18.139Z,0.60
2018-08-25T13:33:47.004Z,0.60
2018-08-25T13:36:15.962Z,0.60
2018-08-25T13:38:44.881Z,0.67
2018-08-25T13:41:13.794Z,0.80
2018-08-25T13:43:42.731Z,0.70
2018-08-25T13:46:11.582Z,1.23
2018-08-25T13:48:40.549Z,0.90
2018-08-25T13:51:09.561Z,0.93
2018-08-25T13:53:38.409Z,0.73
2018-08-25T13:56:07.309Z,0.80
2018-08-25T13:58:36.309Z,1.13
2018-08-25T14:01:05.176Z,0.87
2018-08-25T14:03:34.058Z,0.80
2018-08-25T14:06:03.015Z,1.13
2018-08-25T14:08:31.901Z,1.10
2018-08-25T14:11:00.772Z,1.03
2018-08-25T14:13:29.732Z,1.30
2018-08-25T14:15:58.641Z,1.07
2018-08-25T14:18:27.501Z,1.13
2018-08-25T14:20:56.431Z,1.23
2018-08-25T14:23:25.308Z,1.23
2018-08-25T14:25:54.207Z,1.27
2018-08-25T14:28:23.141Z,1.47
2018-08-25T14:30:52.012Z,1.07
2018-08-25T14:33:20.882Z,1.00
2018-08-25T14:35:49.895Z,1.17
2018-08-25T14:38:18.845Z,1.47
2018-08-25T14:40:47.744Z,1.37
2018-08-25T14:43:16.663Z,1.27
2018-08-25T14:45:45.578Z,1.40
2018-08-25T14:48:15.612Z,1.07
2018-08-25T14:50:44.570Z,1.20
2018-08-25T14:53:13.997Z,1.00
2018-08-25T14:55:43.525Z,1.30
2018-08-25T14:58:13.317Z,1.00
2018-08-25T15:00:42.195Z,0.60
2018-08-25T15:03:11.094Z,0.60
2018-08-25T15:05:40.045Z,0.60
2018-08-25T15:08:08.939Z,0.70
2018-08-25T15:10:37.829Z,0.63
2018-08-25T15:13:06.752Z,0.60
2018-08-25T15:15:35.633Z,0.77
2018-08-25T15:18:04.520Z,0.87
2018-08-25T15:20:33.469Z,0.70
2018-08-25T15:23:02.333Z,0.70
2018-08-25T15:25:31.226Z,0.80
2018-08-25T15:28:00.168Z,1.10
2018-08-25T15:30:29.039Z,0.90
2018-08-25T15:32:57.919Z,1.10
2018-08-25T15:35:26.879Z,1.53
2018-08-25T15:37:56.107Z,1.10
2018-08-25T15:40:25.061Z,1.73
2018-08-25T15:42:54.030Z,1.80
2018-08-25T15:45:22.937Z,2.20
2018-08-25T15:47:51.808Z,3.23
2018-08-25T15:50:20.784Z,1.70
2018-08-25T15:52:49.650Z,2.43
2018-08-25T15:55:18.577Z,2.80
2018-08-25T15:57:47.537Z,2.30
2018-08-25T16:00:16.388Z,2.13
2018-08-25T16:02:45.261Z,1.93
2018-08-25T16:05:14.212Z,2.40
2018-08-25T16:07:43.072Z,1.87
2018-08-25T16:10:11.932Z,1.90
2018-08-25T16:12:40.870Z,1.97
2018-08-25T16:15:09.764Z,3.47
2018-08-25T16:17:38.629Z,1.90
2018-08-25T16:20:07.667Z,2.00
2018-08-25T16:22:36.499Z,2.07
2018-08-25T16:25:05.387Z,2.00
2018-08-25T16:27:34.331Z,2.25
2018-08-25T16:30:03.241Z,2.30
2018-08-25T16:32:32.114Z,2.20
2018-08-25T16:35:01.119Z,1.10
2018-08-25T16:37:30.017Z,1.07
2018-08-25T16:39:58.968Z,1.70
2018-08-25T16:42:28.016Z,0.85
2018-08-25T16:44:56.903Z,0.90
2018-08-25T16:47:25.769Z,0.70
2018-08-25T16:49:54.784Z,0.93
2018-08-25T16:52:23.684Z,0.50
2018-08-25T16:54:53.004Z,0.80
2018-08-25T16:57:22.038Z,0.80
2018-08-25T16:59:51.080Z,0.40
2018-08-25T17:02:20.061Z,0.57
2018-08-25T17:04:49.045Z,0.40
2018-08-25T17:07:17.956Z,0.50
2018-08-25T17:09:46.922Z,0.50
2018-08-25T17:12:15.834Z,0.50
2018-08-25T17:14:44.768Z,0.33
2018-08-25T17:17:13.756Z,0.63
2018-08-25T17:19:42.656Z,0.33
2018-08-25T17:22:11.707Z,0.40
2018-08-25T17:24:40.659Z,0.73
2018-08-25T17:27:09.506Z,0.40
2018-08-25T17:29:38.392Z,0.53
2018-08-25T17:32:07.411Z,0.50
2018-08-25T17:34:36.288Z,0.70
2018-08-25T17:37:05.194Z,0.97
2018-08-25T17:39:34.144Z,0.53
2018-08-25T17:42:03.030Z,0.60
2018-08-25T17:44:32.035Z,0.70
2018-08-25T17:47:01.040Z,0.70
2018-08-25T17:49:29.918Z,0.80
2018-08-25T17:51:58.863Z,0.87
2018-08-25T17:54:27.822Z,0.40
2018-08-25T17:56:56.756Z,0.60
2018-08-25T17:59:25.633Z,0.40
2018-08-25T18:01:54.613Z,0.50
2018-08-25T18:04:23.541Z,0.68
2018-08-25T18:06:52.440Z,0.60
2018-08-25T18:09:21.449Z,0.70
2018-08-25T18:11:50.364Z,0.53
2018-08-25T18:14:19.274Z,0.50
2018-08-25T18:16:48.179Z,0.80
2018-08-25T18:19:17.143Z,0.70
2018-08-25T18:21:46.039Z,0.53
2018-08-25T18:24:15.472Z,0.50
2018-08-25T18:26:44.357Z,0.73
2018-08-25T18:29:13.253Z,0.60
2018-08-25T18:31:42.290Z,0.50
2018-08-25T18:34:11.256Z,0.80
2018-08-25T18:36:40.238Z,0.87
2018-08-25T18:39:11.233Z,0.40
2018-08-25T18:41:40.158Z,0.70
2018-08-25T18:44:09.100Z,0.60
2018-08-25T18:46:38.249Z,0.67
2018-08-25T18:49:07.181Z,0.40
2018-08-25T18:51:36.090Z,0.67
2018-08-25T18:54:05.112Z,0.60
2018-08-25T18:56:34.069Z,0.70
2018-08-25T18:59:02.989Z,0.60
2018-08-25T19:01:31.953Z,0.77
2018-08-25T19:04:01.601Z,0.50
2018-08-25T19:06:30.490Z,0.67
2018-08-25T19:08:59.567Z,0.70
2018-08-25T19:11:28.457Z,0.60
2018-08-25T19:13:57.417Z,0.70
2018-08-25T19:16:28.472Z,0.50
2018-08-25T19:18:57.407Z,0.70
2018-08-25T19:21:26.372Z,0.60
2018-08-25T19:23:55.570Z,0.67
2018-08-25T19:26:24.507Z,0.60
2018-08-25T19:28:53.597Z,0.63
2018-08-25T19:31:22.519Z,0.80
2018-08-25T19:33:51.565Z,0.40
2018-08-25T19:36:20.594Z,0.43
2018-08-25T19:38:49.945Z,0.73
2018-08-25T19:41:19.933Z,0.70
2018-08-25T19:43:48.926Z,0.50
2018-08-25T19:46:17.831Z,0.60
2018-08-25T19:48:46.921Z,0.57
2018-08-25T19:51:15.967Z,0.53
2018-08-25T19:53:44.882Z,0.27
2018-08-25T19:56:13.816Z,0.40
2018-08-25T19:58:42.855Z,0.47
2018-08-25T20:01:11.787Z,0.60
2018-08-25T20:03:40.659Z,0.73
2018-08-25T20:06:09.879Z,0.57
2018-08-25T20:08:38.811Z,0.50
2018-08-25T20:11:07.717Z,0.60
2018-08-25T20:13:36.775Z,0.40
2018-08-25T20:16:05.790Z,0.50
2018-08-25T20:18:34.707Z,0.60
2018-08-25T20:21:03.847Z,0.43
2018-08-25T20:23:32.659Z,0.50
2018-08-25T20:26:01.548Z,0.50
2018-08-25T20:28:30.498Z,0.40
2018-08-25T20:31:00.387Z,0.60
2018-08-25T20:33:29.282Z,0.40
2018-08-25T20:35:58.497Z,0.50
2018-08-25T20:38:27.409Z,0.50
2018-08-25T20:40:56.387Z,0.43
2018-08-25T20:43:25.392Z,0.50
2018-08-25T20:45:55.015Z,0.40
2018-08-25T20:48:23.882Z,0.57
2018-08-25T20:50:52.973Z,0.57
2018-08-25T20:53:26.927Z,0.30
2018-08-25T20:55:55.857Z,0.40
2018-08-25T20:58:24.742Z,0.50
2018-08-25T21:00:53.670Z,0.50
2018-08-25T21:03:23.619Z,0.40
2018-08-25T21:05:53.104Z,0.50
2018-08-25T21:08:22.824Z,0.70
2018-08-25T21:10:51.907Z,0.40
2018-08-25T21:13:20.895Z,0.40
2018-08-25T21:15:49.872Z,0.50
2018-08-25T21:18:18.752Z,0.37
2018-08-25T21:20:47.748Z,0.40
2018-08-25T21:23:16.651Z,0.47
2018-08-25T21:25:45.579Z,0.60
2018-08-25T21:28:14.511Z,0.37
2018-08-25T21:30:44.408Z,0.37
2018-08-25T21:33:13.377Z,0.40
2018-08-25T21:35:42.310Z,0.30
2018-08-25T21:38:11.194Z,0.50
2018-08-25T21:40:40.398Z,0.37
2018-08-25T21:43:09.301Z,0.57
2018-08-25T21:45:38.184Z,0.40
2018-08-25T21:48:07.239Z,0.50
2018-08-25T21:50:36.178Z,0.60
2018-08-25T21:53:05.210Z,0.40
2018-08-25T21:55:34.181Z,0.57
2018-08-25T21:58:03.129Z,0.33
2018-08-25T22:00:32.029Z,0.63
2018-08-25T22:03:01.004Z,0.53
2018-08-25T22:05:29.984Z,0.50
2018-08-25T22:07:58.893Z,0.57
2018-08-25T22:10:29.985Z,0.50
2018-08-25T22:12:58.868Z,0.57
2018-08-25T22:15:27.751Z,0.53
2018-08-25T22:17:56.686Z,0.60
2018-08-25T22:20:25.553Z,1.00
2018-08-25T22:22:54.429Z,0.70
2018-08-25T22:25:23.395Z,1.20
2018-08-25T22:27:52.285Z,0.90
2018-08-25T22:30:21.407Z,0.80
2018-08-25T22:32:50.373Z,1.00
2018-08-25T22:35:19.250Z,0.70
2018-08-25T22:37:48.217Z,0.80
2018-08-25T22:40:17.157Z,0.90
2018-08-25T22:42:46.078Z,0.80
2018-08-25T22:45:15.046Z,0.67
2018-08-25T22:47:44.036Z,0.53
2018-08-25T22:50:13.017Z,0.67
2018-08-25T22:52:47.425Z,0.80
2018-08-25T22:55:16.393Z,0.90
2018-08-25T22:57:45.266Z,0.93
2018-08-25T23:00:14.257Z,0.60
2018-08-25T23:02:43.136Z,0.70
2018-08-25T23:05:12.038Z,0.80
2018-08-25T23:07:41.079Z,0.60
2018-08-25T23:10:09.925Z,0.87
2018-08-25T23:12:38.827Z,1.13
2018-08-25T23:15:07.821Z,0.80
2018-08-25T23:17:36.718Z,0.90
2018-08-25T23:20:05.614Z,0.90
2018-08-25T23:22:34.554Z,0.50
2018-08-25T23:25:03.443Z,0.73
2018-08-25T23:27:32.366Z,0.70
2018-08-25T23:30:01.308Z,0.87
2018-08-25T23:32:30.226Z,0.80
2018-08-25T23:34:59.118Z,0.60
2018-08-25T23:37:28.050Z,0.73
2018-08-25T23:39:56.945Z,1.00
2018-08-25T23:42:25.840Z,1.10
2018-08-25T23:44:54.799Z,1.03
2018-08-25T23:47:23.660Z,0.73
2018-08-25T23:49:52.560Z,1.13
2018-08-25T23:52:21.520Z,0.60
2018-08-25T23:54:50.419Z,1.10
2018-08-25T23:57:19.358Z,0.97
2018-08-25T23:59:48.315Z,0.70
